sensor_id;sensor_type;location;lat;lon;timestamp;temperature;humidity
19039;DHT22;9652;49.014;12.052;2022-10-22T00:02:26;15.80;72.70
19039;DHT22;9652;49.014;12.052;2022-10-22T00:04:53;15.80;72.80
19039;DHT22;9652;49.014;12.052;2022-10-22T00:07:21;15.80;72.70
19039;DHT22;9652;49.014;12.052;2022-10-22T00:09:49;15.80;72.90
19039;DHT22;9652;49.014;12.052;2022-10-22T00:12:16;15.80;72.90
19039;DHT22;9652;49.014;12.052;2022-10-22T00:14:44;15.60;72.70
19039;DHT22;9652;49.014;12.052;2022-10-22T00:17:12;15.80;72.90
19039;DHT22;9652;49.014;12.052;2022-10-22T00:19:41;15.80;72.90
19039;DHT22;9652;49.014;12.052;2022-10-22T00:22:08;15.80;73.00
19039;DHT22;9652;49.014;12.052;2022-10-22T00:24:37;15.80;73.00
19039;DHT22;9652;49.014;12.052;2022-10-22T00:27:06;15.80;73.10
19039;DHT22;9652;49.014;12.052;2022-10-22T00:29:34;15.80;73.20
19039;DHT22;9652;49.014;12.052;2022-10-22T00:32:02;15.80;73.20
19039;DHT22;9652;49.014;12.052;2022-10-22T00:34:30;15.80;73.30
19039;DHT22;9652;49.014;12.052;2022-10-22T00:36:59;15.80;73.20
19039;DHT22;9652;49.014;12.052;2022-10-22T00:39:26;15.90;73.30
19039;DHT22;9652;49.014;12.052;2022-10-22T00:41:55;15.80;73.30
19039;DHT22;9652;49.014;12.052;2022-10-22T00:45:04;15.90;73.30
19039;DHT22;9652;49.014;12.052;2022-10-22T00:47:42;15.80;73.80
19039;DHT22;9652;49.014;12.052;2022-10-22T00:50:18;15.80;73.30
19039;DHT22;9652;49.014;12.052;2022-10-22T00:52:50;15.80;73.40
19039;DHT22;9652;49.014;12.052;2022-10-22T00:55:18;15.80;73.50
19039;DHT22;9652;49.014;12.052;2022-10-22T00:57:47;15.80;73.50
19039;DHT22;9652;49.014;12.052;2022-10-22T01:00:15;15.80;73.70
19039;DHT22;9652;49.014;12.052;2022-10-22T01:02:43;15.80;73.80
19039;DHT22;9652;49.014;12.052;2022-10-22T01:05:10;15.80;73.90
19039;DHT22;9652;49.014;12.052;2022-10-22T01:07:42;15.80;73.90
19039;DHT22;9652;49.014;12.052;2022-10-22T01:10:19;15.80;74.10
19039;DHT22;9652;49.014;12.052;2022-10-22T01:13:05;15.80;74.20
19039;DHT22;9652;49.014;12.052;2022-10-22T01:15:47;15.80;74.20
19039;DHT22;9652;49.014;12.052;2022-10-22T01:18:23;15.80;74.00
19039;DHT22;9652;49.014;12.052;2022-10-22T01:21:02;15.80;74.00
19039;DHT22;9652;49.014;12.052;2022-10-22T01:27:04;15.80;74.60
19039;DHT22;9652;49.014;12.052;2022-10-22T01:29:42;15.80;74.30
19039;DHT22;9652;49.014;12.052;2022-10-22T01:32:16;15.80;74.20
19039;DHT22;9652;49.014;12.052;2022-10-22T01:34:48;15.80;74.30
19039;DHT22;9652;49.014;12.052;2022-10-22T01:37:19;15.80;74.40
19039;DHT22;9652;49.014;12.052;2022-10-22T01:39:50;15.80;74.40
19039;DHT22;9652;49.014;12.052;2022-10-22T01:42:18;15.80;74.50
19039;DHT22;9652;49.014;12.052;2022-10-22T01:44:47;15.80;74.60
19039;DHT22;9652;49.014;12.052;2022-10-22T01:47:19;15.70;74.60
19039;DHT22;9652;49.014;12.052;2022-10-22T01:50:38;15.80;74.80
19039;DHT22;9652;49.014;12.052;2022-10-22T01:53:28;15.80;76.30
19039;DHT22;9652;49.014;12.052;2022-10-22T01:56:14;15.80;74.90
19039;DHT22;9652;49.014;12.052;2022-10-22T01:58:53;15.80;75.10
19039;DHT22;9652;49.014;12.052;2022-10-22T02:01:31;15.80;75.10
19039;DHT22;9652;49.014;12.052;2022-10-22T02:04:11;15.80;75.30
19039;DHT22;9652;49.014;12.052;2022-10-22T02:06:42;15.80;75.10
19039;DHT22;9652;49.014;12.052;2022-10-22T02:09:13;15.80;75.00
19039;DHT22;9652;49.014;12.052;2022-10-22T02:11:44;15.80;75.00
19039;DHT22;9652;49.014;12.052;2022-10-22T02:14:15;15.80;75.00
19039;DHT22;9652;49.014;12.052;2022-10-22T02:16:46;15.70;75.00
19039;DHT22;9652;49.014;12.052;2022-10-22T02:19:25;15.80;75.20
19039;DHT22;9652;49.014;12.052;2022-10-22T02:21:54;15.80;75.30
19039;DHT22;9652;49.014;12.052;2022-10-22T02:24:21;15.80;75.10
19039;DHT22;9652;49.014;12.052;2022-10-22T02:26:54;15.70;75.10
19039;DHT22;9652;49.014;12.052;2022-10-22T02:29:33;15.70;75.20
19039;DHT22;9652;49.014;12.052;2022-10-22T02:32:08;15.60;75.10
19039;DHT22;9652;49.014;12.052;2022-10-22T02:34:36;15.70;75.30
19039;DHT22;9652;49.014;12.052;2022-10-22T02:37:04;15.70;75.30
19039;DHT22;9652;49.014;12.052;2022-10-22T02:39:33;15.70;75.40
19039;DHT22;9652;49.014;12.052;2022-10-22T02:42:02;15.70;75.40
19039;DHT22;9652;49.014;12.052;2022-10-22T02:44:30;15.70;75.40
19039;DHT22;9652;49.014;12.052;2022-10-22T02:46:57;15.70;75.40
19039;DHT22;9652;49.014;12.052;2022-10-22T02:49:26;15.70;75.50
19039;DHT22;9652;49.014;12.052;2022-10-22T02:51:54;15.70;75.70
19039;DHT22;9652;49.014;12.052;2022-10-22T02:54:21;15.70;75.60
19039;DHT22;9652;49.014;12.052;2022-10-22T02:56:48;15.70;75.50
19039;DHT22;9652;49.014;12.052;2022-10-22T02:59:15;15.70;75.50
19039;DHT22;9652;49.014;12.052;2022-10-22T03:01:42;15.70;75.50
19039;DHT22;9652;49.014;12.052;2022-10-22T03:04:10;15.70;75.60
19039;DHT22;9652;49.014;12.052;2022-10-22T03:06:38;15.70;75.80
19039;DHT22;9652;49.014;12.052;2022-10-22T03:09:08;15.70;75.90
19039;DHT22;9652;49.014;12.052;2022-10-22T03:11:36;15.70;76.00
19039;DHT22;9652;49.014;12.052;2022-10-22T03:14:03;15.70;76.10
19039;DHT22;9652;49.014;12.052;2022-10-22T03:16:30;15.80;76.20
19039;DHT22;9652;49.014;12.052;2022-10-22T03:18:57;15.70;76.20
19039;DHT22;9652;49.014;12.052;2022-10-22T03:21:30;15.70;76.10
19039;DHT22;9652;49.014;12.052;2022-10-22T03:24:07;15.80;76.30
19039;DHT22;9652;49.014;12.052;2022-10-22T03:26:42;15.70;76.20
19039;DHT22;9652;49.014;12.052;2022-10-22T03:29:13;15.70;76.10
19039;DHT22;9652;49.014;12.052;2022-10-22T03:31:41;15.70;76.30
19039;DHT22;9652;49.014;12.052;2022-10-22T03:34:09;15.70;76.30
19039;DHT22;9652;49.014;12.052;2022-10-22T03:36:38;15.70;76.40
19039;DHT22;9652;49.014;12.052;2022-10-22T03:39:08;15.80;76.50
19039;DHT22;9652;49.014;12.052;2022-10-22T03:41:36;15.70;76.50
19039;DHT22;9652;49.014;12.052;2022-10-22T03:44:03;15.80;76.50
19039;DHT22;9652;49.014;12.052;2022-10-22T03:46:31;15.70;76.40
19039;DHT22;9652;49.014;12.052;2022-10-22T03:48:58;15.70;76.40
19039;DHT22;9652;49.014;12.052;2022-10-22T03:51:26;15.80;76.50
19039;DHT22;9652;49.014;12.052;2022-10-22T03:53:53;15.80;76.70
19039;DHT22;9652;49.014;12.052;2022-10-22T03:56:22;15.80;76.80
19039;DHT22;9652;49.014;12.052;2022-10-22T03:58:50;15.80;76.80
19039;DHT22;9652;49.014;12.052;2022-10-22T04:01:17;15.80;76.80
19039;DHT22;9652;49.014;12.052;2022-10-22T04:03:44;15.80;76.80
19039;DHT22;9652;49.014;12.052;2022-10-22T04:06:12;15.70;76.60
19039;DHT22;9652;49.014;12.052;2022-10-22T04:08:40;15.80;76.80
19039;DHT22;9652;49.014;12.052;2022-10-22T04:11:09;15.80;76.80
19039;DHT22;9652;49.014;12.052;2022-10-22T04:13:38;15.80;76.80
19039;DHT22;9652;49.014;12.052;2022-10-22T04:16:07;15.80;76.90
19039;DHT22;9652;49.014;12.052;2022-10-22T04:18:35;15.80;77.00
19039;DHT22;9652;49.014;12.052;2022-10-22T04:21:03;15.80;77.00
19039;DHT22;9652;49.014;12.052;2022-10-22T04:23:31;15.80;77.20
19039;DHT22;9652;49.014;12.052;2022-10-22T04:25:58;15.90;77.10
19039;DHT22;9652;49.014;12.052;2022-10-22T04:28:26;15.90;77.10
19039;DHT22;9652;49.014;12.052;2022-10-22T04:30:55;15.90;77.10
19039;DHT22;9652;49.014;12.052;2022-10-22T04:33:22;15.90;77.10
19039;DHT22;9652;49.014;12.052;2022-10-22T04:35:49;15.90;77.10
19039;DHT22;9652;49.014;12.052;2022-10-22T04:38:16;15.90;77.10
19039;DHT22;9652;49.014;12.052;2022-10-22T04:40:43;15.90;77.10
19039;DHT22;9652;49.014;12.052;2022-10-22T04:43:10;15.90;77.00
19039;DHT22;9652;49.014;12.052;2022-10-22T04:45:37;16.00;76.80
19039;DHT22;9652;49.014;12.052;2022-10-22T04:48:06;15.90;76.80
19039;DHT22;9652;49.014;12.052;2022-10-22T04:50:33;15.90;77.00
19039;DHT22;9652;49.014;12.052;2022-10-22T04:53:01;15.90;77.00
19039;DHT22;9652;49.014;12.052;2022-10-22T04:55:28;16.00;77.00
19039;DHT22;9652;49.014;12.052;2022-10-22T04:57:55;16.00;77.00
19039;DHT22;9652;49.014;12.052;2022-10-22T05:04:29;16.00;77.40
19039;DHT22;9652;49.014;12.052;2022-10-22T05:06:56;16.00;76.90
19039;DHT22;9652;49.014;12.052;2022-10-22T05:09:23;16.00;77.00
19039;DHT22;9652;49.014;12.052;2022-10-22T05:11:52;16.00;77.20
19039;DHT22;9652;49.014;12.052;2022-10-22T05:14:21;16.00;77.20
19039;DHT22;9652;49.014;12.052;2022-10-22T05:16:49;16.00;77.10
19039;DHT22;9652;49.014;12.052;2022-10-22T05:19:20;16.00;76.90
19039;DHT22;9652;49.014;12.052;2022-10-22T05:21:50;16.00;76.80
19039;DHT22;9652;49.014;12.052;2022-10-22T05:24:18;16.00;76.70
19039;DHT22;9652;49.014;12.052;2022-10-22T05:26:47;16.00;76.60
19039;DHT22;9652;49.014;12.052;2022-10-22T05:29:15;16.00;76.80
19039;DHT22;9652;49.014;12.052;2022-10-22T05:31:42;16.00;76.80
19039;DHT22;9652;49.014;12.052;2022-10-22T05:34:09;16.00;76.90
19039;DHT22;9652;49.014;12.052;2022-10-22T05:36:37;16.00;77.00
19039;DHT22;9652;49.014;12.052;2022-10-22T05:39:06;16.00;77.00
19039;DHT22;9652;49.014;12.052;2022-10-22T05:41:34;16.00;77.20
19039;DHT22;9652;49.014;12.052;2022-10-22T05:44:01;16.00;77.30
19039;DHT22;9652;49.014;12.052;2022-10-22T05:46:33;16.10;77.30
19039;DHT22;9652;49.014;12.052;2022-10-22T05:49:04;16.00;77.30
19039;DHT22;9652;49.014;12.052;2022-10-22T05:51:34;16.10;77.30
19039;DHT22;9652;49.014;12.052;2022-10-22T05:54:04;16.10;77.20
19039;DHT22;9652;49.014;12.052;2022-10-22T05:56:35;16.00;77.20
19039;DHT22;9652;49.014;12.052;2022-10-22T05:59:03;16.10;77.20
19039;DHT22;9652;49.014;12.052;2022-10-22T06:01:31;16.10;77.30
19039;DHT22;9652;49.014;12.052;2022-10-22T06:04:02;16.10;77.30
19039;DHT22;9652;49.014;12.052;2022-10-22T06:06:33;16.20;77.50
19039;DHT22;9652;49.014;12.052;2022-10-22T06:09:05;16.10;77.40
19039;DHT22;9652;49.014;12.052;2022-10-22T06:11:38;16.10;77.50
19039;DHT22;9652;49.014;12.052;2022-10-22T06:14:06;16.10;77.40
19039;DHT22;9652;49.014;12.052;2022-10-22T06:16:33;16.00;77.50
19039;DHT22;9652;49.014;12.052;2022-10-22T06:19:00;16.10;77.50
19039;DHT22;9652;49.014;12.052;2022-10-22T06:21:29;16.10;77.50
19039;DHT22;9652;49.014;12.052;2022-10-22T06:23:57;16.10;77.60
19039;DHT22;9652;49.014;12.052;2022-10-22T06:26:28;16.10;77.70
19039;DHT22;9652;49.014;12.052;2022-10-22T06:28:56;16.10;78.00
19039;DHT22;9652;49.014;12.052;2022-10-22T06:31:24;16.20;78.00
19039;DHT22;9652;49.014;12.052;2022-10-22T06:33:52;16.10;77.80
19039;DHT22;9652;49.014;12.052;2022-10-22T06:36:21;16.20;77.80
19039;DHT22;9652;49.014;12.052;2022-10-22T06:38:51;16.20;77.70
19039;DHT22;9652;49.014;12.052;2022-10-22T06:41:19;16.20;77.70
19039;DHT22;9652;49.014;12.052;2022-10-22T06:43:48;16.20;77.70
19039;DHT22;9652;49.014;12.052;2022-10-22T06:46:17;16.20;77.70
19039;DHT22;9652;49.014;12.052;2022-10-22T06:48:48;16.20;77.70
19039;DHT22;9652;49.014;12.052;2022-10-22T06:51:16;16.20;77.80
19039;DHT22;9652;49.014;12.052;2022-10-22T06:53:43;16.20;77.70
19039;DHT22;9652;49.014;12.052;2022-10-22T06:56:12;16.20;77.70
19039;DHT22;9652;49.014;12.052;2022-10-22T06:58:41;16.20;77.60
19039;DHT22;9652;49.014;12.052;2022-10-22T07:01:12;16.20;77.60
19039;DHT22;9652;49.014;12.052;2022-10-22T07:03:40;16.20;77.70
19039;DHT22;9652;49.014;12.052;2022-10-22T07:06:09;16.20;77.70
19039;DHT22;9652;49.014;12.052;2022-10-22T07:08:38;16.20;78.00
19039;DHT22;9652;49.014;12.052;2022-10-22T07:11:07;16.20;78.30
19039;DHT22;9652;49.014;12.052;2022-10-22T07:13:36;16.30;78.40
19039;DHT22;9652;49.014;12.052;2022-10-22T07:16:04;16.30;78.40
19039;DHT22;9652;49.014;12.052;2022-10-22T07:18:35;16.30;78.60
19039;DHT22;9652;49.014;12.052;2022-10-22T07:21:04;16.40;78.70
19039;DHT22;9652;49.014;12.052;2022-10-22T07:23:32;16.40;78.70
19039;DHT22;9652;49.014;12.052;2022-10-22T07:25:59;16.40;78.80
19039;DHT22;9652;49.014;12.052;2022-10-22T07:28:28;16.50;79.00
19039;DHT22;9652;49.014;12.052;2022-10-22T07:30:55;16.60;79.10
19039;DHT22;9652;49.014;12.052;2022-10-22T07:33:22;16.60;79.10
19039;DHT22;9652;49.014;12.052;2022-10-22T07:35:55;16.60;79.00
19039;DHT22;9652;49.014;12.052;2022-10-22T07:38:23;16.70;78.90
19039;DHT22;9652;49.014;12.052;2022-10-22T07:40:51;16.80;79.10
19039;DHT22;9652;49.014;12.052;2022-10-22T07:43:18;16.70;79.10
19039;DHT22;9652;49.014;12.052;2022-10-22T07:45:45;16.80;79.20
19039;DHT22;9652;49.014;12.052;2022-10-22T07:48:12;16.90;79.30
19039;DHT22;9652;49.014;12.052;2022-10-22T07:50:39;17.00;79.20
19039;DHT22;9652;49.014;12.052;2022-10-22T07:53:08;17.00;79.00
19039;DHT22;9652;49.014;12.052;2022-10-22T07:55:35;17.10;78.80
19039;DHT22;9652;49.014;12.052;2022-10-22T07:58:02;17.10;78.70
19039;DHT22;9652;49.014;12.052;2022-10-22T08:00:29;17.20;78.60
19039;DHT22;9652;49.014;12.052;2022-10-22T08:02:56;17.20;78.60
19039;DHT22;9652;49.014;12.052;2022-10-22T08:05:23;17.20;78.60
19039;DHT22;9652;49.014;12.052;2022-10-22T08:07:51;17.20;78.50
19039;DHT22;9652;49.014;12.052;2022-10-22T08:10:19;17.30;78.40
19039;DHT22;9652;49.014;12.052;2022-10-22T08:12:46;17.40;78.40
19039;DHT22;9652;49.014;12.052;2022-10-22T08:15:13;17.50;78.50
19039;DHT22;9652;49.014;12.052;2022-10-22T08:17:40;17.50;78.30
19039;DHT22;9652;49.014;12.052;2022-10-22T08:20:08;17.60;78.40
19039;DHT22;9652;49.014;12.052;2022-10-22T08:22:36;17.50;78.30
19039;DHT22;9652;49.014;12.052;2022-10-22T08:25:04;17.60;78.20
19039;DHT22;9652;49.014;12.052;2022-10-22T08:27:33;17.60;78.00
19039;DHT22;9652;49.014;12.052;2022-10-22T08:30:00;17.70;78.00
19039;DHT22;9652;49.014;12.052;2022-10-22T08:32:27;17.70;77.90
19039;DHT22;9652;49.014;12.052;2022-10-22T08:34:54;17.70;77.80
19039;DHT22;9652;49.014;12.052;2022-10-22T08:37:21;17.70;77.80
19039;DHT22;9652;49.014;12.052;2022-10-22T08:39:48;17.80;77.70
19039;DHT22;9652;49.014;12.052;2022-10-22T08:42:49;17.80;77.60
19039;DHT22;9652;49.014;12.052;2022-10-22T08:46:04;17.90;77.50
19039;DHT22;9652;49.014;12.052;2022-10-22T08:48:42;18.00;77.60
19039;DHT22;9652;49.014;12.052;2022-10-22T08:51:15;18.00;77.70
19039;DHT22;9652;49.014;12.052;2022-10-22T08:53:52;18.00;77.70
19039;DHT22;9652;49.014;12.052;2022-10-22T08:56:32;18.10;77.60
19039;DHT22;9652;49.014;12.052;2022-10-22T08:59:09;18.20;77.60
19039;DHT22;9652;49.014;12.052;2022-10-22T09:01:45;18.30;77.20
19039;DHT22;9652;49.014;12.052;2022-10-22T09:04:17;18.30;77.20
19039;DHT22;9652;49.014;12.052;2022-10-22T09:06:51;18.40;77.20
19039;DHT22;9652;49.014;12.052;2022-10-22T09:09:20;18.40;77.20
19039;DHT22;9652;49.014;12.052;2022-10-22T09:11:51;18.50;77.10
19039;DHT22;9652;49.014;12.052;2022-10-22T09:14:23;18.60;76.80
19039;DHT22;9652;49.014;12.052;2022-10-22T09:17:11;18.60;76.60
19039;DHT22;9652;49.014;12.052;2022-10-22T09:19:50;18.70;76.10
19039;DHT22;9652;49.014;12.052;2022-10-22T09:22:30;18.60;76.10
19039;DHT22;9652;49.014;12.052;2022-10-22T09:25:10;18.70;75.80
19039;DHT22;9652;49.014;12.052;2022-10-22T09:27:43;18.80;75.80
19039;DHT22;9652;49.014;12.052;2022-10-22T09:30:16;18.80;75.90
19039;DHT22;9652;49.014;12.052;2022-10-22T09:32:44;18.90;75.90
19039;DHT22;9652;49.014;12.052;2022-10-22T09:35:13;18.90;76.00
19039;DHT22;9652;49.014;12.052;2022-10-22T09:37:50;19.00;75.70
19039;DHT22;9652;49.014;12.052;2022-10-22T09:40:20;19.00;75.50
19039;DHT22;9652;49.014;12.052;2022-10-22T09:42:48;19.10;75.60
19039;DHT22;9652;49.014;12.052;2022-10-22T09:45:20;19.10;75.50
19039;DHT22;9652;49.014;12.052;2022-10-22T09:48:02;19.10;75.20
19039;DHT22;9652;49.014;12.052;2022-10-22T09:50:41;19.20;74.60
19039;DHT22;9652;49.014;12.052;2022-10-22T09:53:17;19.20;74.80
19039;DHT22;9652;49.014;12.052;2022-10-22T09:55:50;19.20;74.50
19039;DHT22;9652;49.014;12.052;2022-10-22T09:58:19;19.30;74.50
19039;DHT22;9652;49.014;12.052;2022-10-22T10:00:52;19.30;74.60
19039;DHT22;9652;49.014;12.052;2022-10-22T10:03:23;19.30;74.40
19039;DHT22;9652;49.014;12.052;2022-10-22T10:05:54;19.40;74.40
19039;DHT22;9652;49.014;12.052;2022-10-22T10:08:23;19.40;74.30
19039;DHT22;9652;49.014;12.052;2022-10-22T10:10:55;19.40;74.40
19039;DHT22;9652;49.014;12.052;2022-10-22T10:13:46;19.40;74.00
19039;DHT22;9652;49.014;12.052;2022-10-22T10:16:37;19.40;73.30
19039;DHT22;9652;49.014;12.052;2022-10-22T10:19:22;19.50;73.50
19039;DHT22;9652;49.014;12.052;2022-10-22T10:22:04;19.60;73.60
19039;DHT22;9652;49.014;12.052;2022-10-22T10:24:55;19.60;73.80
19039;DHT22;9652;49.014;12.052;2022-10-22T10:27:40;19.60;73.30
19039;DHT22;9652;49.014;12.052;2022-10-22T10:30:13;19.70;73.30
19039;DHT22;9652;49.014;12.052;2022-10-22T10:33:00;19.70;73.00
19039;DHT22;9652;49.014;12.052;2022-10-22T10:35:44;19.70;72.50
19039;DHT22;9652;49.014;12.052;2022-10-22T10:38:32;19.70;72.50
19039;DHT22;9652;49.014;12.052;2022-10-22T10:41:16;19.70;72.30
19039;DHT22;9652;49.014;12.052;2022-10-22T10:44:15;19.70;72.20
19039;DHT22;9652;49.014;12.052;2022-10-22T10:47:01;19.70;72.00
19039;DHT22;9652;49.014;12.052;2022-10-22T10:49:36;19.60;72.50
19039;DHT22;9652;49.014;12.052;2022-10-22T10:52:11;19.70;72.80
19039;DHT22;9652;49.014;12.052;2022-10-22T10:54:47;19.70;72.80
19039;DHT22;9652;49.014;12.052;2022-10-22T10:57:37;19.70;72.90
19039;DHT22;9652;49.014;12.052;2022-10-22T11:00:10;19.70;72.30
19039;DHT22;9652;49.014;12.052;2022-10-22T11:03:04;19.80;72.80
19039;DHT22;9652;49.014;12.052;2022-10-22T11:05:52;19.80;72.20
19039;DHT22;9652;49.014;12.052;2022-10-22T11:08:25;19.80;72.00
19039;DHT22;9652;49.014;12.052;2022-10-22T11:10:58;19.90;72.10
19039;DHT22;9652;49.014;12.052;2022-10-22T11:13:30;19.90;72.50
19039;DHT22;9652;49.014;12.052;2022-10-22T11:16:04;19.90;72.70
19039;DHT22;9652;49.014;12.052;2022-10-22T11:18:39;19.90;72.50
19039;DHT22;9652;49.014;12.052;2022-10-22T11:21:16;19.90;72.30
19039;DHT22;9652;49.014;12.052;2022-10-22T11:23:52;20.00;72.00
19039;DHT22;9652;49.014;12.052;2022-10-22T11:26:30;20.10;71.80
19039;DHT22;9652;49.014;12.052;2022-10-22T11:29:05;20.10;71.50
19039;DHT22;9652;49.014;12.052;2022-10-22T11:31:37;20.10;71.40
19039;DHT22;9652;49.014;12.052;2022-10-22T11:34:13;20.20;71.60
19039;DHT22;9652;49.014;12.052;2022-10-22T11:36:45;20.20;71.20
19039;DHT22;9652;49.014;12.052;2022-10-22T11:39:37;20.20;71.20
19039;DHT22;9652;49.014;12.052;2022-10-22T11:42:10;20.20;70.50
19039;DHT22;9652;49.014;12.052;2022-10-22T11:44:56;20.20;71.00
19039;DHT22;9652;49.014;12.052;2022-10-22T11:47:28;20.30;71.10
19039;DHT22;9652;49.014;12.052;2022-10-22T11:50:16;20.30;71.40
19039;DHT22;9652;49.014;12.052;2022-10-22T11:52:58;20.30;70.90
19039;DHT22;9652;49.014;12.052;2022-10-22T11:55:43;20.40;70.90
19039;DHT22;9652;49.014;12.052;2022-10-22T11:58:29;20.50;69.60
19039;DHT22;9652;49.014;12.052;2022-10-22T12:01:21;20.60;69.30
19039;DHT22;9652;49.014;12.052;2022-10-22T12:03:51;20.70;69.00
19039;DHT22;9652;49.014;12.052;2022-10-22T12:06:22;20.70;69.60
19039;DHT22;9652;49.014;12.052;2022-10-22T12:08:57;20.70;69.40
19039;DHT22;9652;49.014;12.052;2022-10-22T12:11:34;20.70;68.70
19039;DHT22;9652;49.014;12.052;2022-10-22T12:14:22;20.70;68.30
19039;DHT22;9652;49.014;12.052;2022-10-22T12:16:56;20.70;68.10
19039;DHT22;9652;49.014;12.052;2022-10-22T12:19:27;20.70;68.70
19039;DHT22;9652;49.014;12.052;2022-10-22T12:21:58;20.70;68.70
19039;DHT22;9652;49.014;12.052;2022-10-22T12:24:33;20.70;68.50
19039;DHT22;9652;49.014;12.052;2022-10-22T12:27:03;20.70;68.10
19039;DHT22;9652;49.014;12.052;2022-10-22T12:29:32;20.70;68.00
19039;DHT22;9652;49.014;12.052;2022-10-22T12:32:02;20.70;67.80
19039;DHT22;9652;49.014;12.052;2022-10-22T12:34:30;20.60;67.30
19039;DHT22;9652;49.014;12.052;2022-10-22T12:36:57;20.60;67.40
19039;DHT22;9652;49.014;12.052;2022-10-22T12:39:25;20.50;67.50
19039;DHT22;9652;49.014;12.052;2022-10-22T12:41:54;20.50;67.70
19039;DHT22;9652;49.014;12.052;2022-10-22T12:44:21;20.40;67.70
19039;DHT22;9652;49.014;12.052;2022-10-22T12:46:49;20.40;67.80
19039;DHT22;9652;49.014;12.052;2022-10-22T12:49:19;20.40;68.10
19039;DHT22;9652;49.014;12.052;2022-10-22T12:51:49;20.40;68.40
19039;DHT22;9652;49.014;12.052;2022-10-22T12:54:23;20.40;69.20
19039;DHT22;9652;49.014;12.052;2022-10-22T12:56:54;20.50;69.30
19039;DHT22;9652;49.014;12.052;2022-10-22T12:59:24;20.60;69.70
19039;DHT22;9652;49.014;12.052;2022-10-22T13:01:54;20.70;69.60
19039;DHT22;9652;49.014;12.052;2022-10-22T13:04:31;20.80;69.50
19039;DHT22;9652;49.014;12.052;2022-10-22T13:07:15;20.90;68.50
19039;DHT22;9652;49.014;12.052;2022-10-22T13:09:46;21.10;69.10
19039;DHT22;9652;49.014;12.052;2022-10-22T13:12:23;21.10;69.30
19039;DHT22;9652;49.014;12.052;2022-10-22T13:14:51;21.20;69.10
19039;DHT22;9652;49.014;12.052;2022-10-22T13:17:35;21.40;69.60
19039;DHT22;9652;49.014;12.052;2022-10-22T13:20:15;21.50;69.80
19039;DHT22;9652;49.014;12.052;2022-10-22T13:22:52;21.70;69.10
19039;DHT22;9652;49.014;12.052;2022-10-22T13:25:26;21.80;68.60
19039;DHT22;9652;49.014;12.052;2022-10-22T13:27:57;22.00;68.90
19039;DHT22;9652;49.014;12.052;2022-10-22T13:30:28;22.10;68.20
19039;DHT22;9652;49.014;12.052;2022-10-22T13:32:57;22.10;67.90
19039;DHT22;9652;49.014;12.052;2022-10-22T13:35:28;22.10;67.40
19039;DHT22;9652;49.014;12.052;2022-10-22T13:37:58;22.20;67.00
19039;DHT22;9652;49.014;12.052;2022-10-22T13:40:26;22.20;67.00
19039;DHT22;9652;49.014;12.052;2022-10-22T13:42:53;22.20;66.90
19039;DHT22;9652;49.014;12.052;2022-10-22T13:45:22;22.20;66.60
19039;DHT22;9652;49.014;12.052;2022-10-22T13:47:51;22.20;66.00
19039;DHT22;9652;49.014;12.052;2022-10-22T13:50:20;22.20;65.90
19039;DHT22;9652;49.014;12.052;2022-10-22T13:52:50;22.20;65.90
19039;DHT22;9652;49.014;12.052;2022-10-22T13:55:22;22.10;65.50
19039;DHT22;9652;49.014;12.052;2022-10-22T13:57:51;22.10;65.20
19039;DHT22;9652;49.014;12.052;2022-10-22T14:00:22;22.10;65.10
19039;DHT22;9652;49.014;12.052;2022-10-22T14:02:53;22.00;64.90
19039;DHT22;9652;49.014;12.052;2022-10-22T14:05:22;21.90;64.70
19039;DHT22;9652;49.014;12.052;2022-10-22T14:07:51;21.80;64.80
19039;DHT22;9652;49.014;12.052;2022-10-22T14:10:20;21.70;64.90
19039;DHT22;9652;49.014;12.052;2022-10-22T14:12:49;21.60;64.90
19039;DHT22;9652;49.014;12.052;2022-10-22T14:15:19;21.50;64.80
19039;DHT22;9652;49.014;12.052;2022-10-22T14:17:52;21.40;65.30
19039;DHT22;9652;49.014;12.052;2022-10-22T14:20:24;21.30;64.90
19039;DHT22;9652;49.014;12.052;2022-10-22T14:22:53;21.30;65.30
19039;DHT22;9652;49.014;12.052;2022-10-22T14:25:22;21.10;65.60
19039;DHT22;9652;49.014;12.052;2022-10-22T14:27:50;21.10;65.90
19039;DHT22;9652;49.014;12.052;2022-10-22T14:30:20;21.00;66.10
19039;DHT22;9652;49.014;12.052;2022-10-22T14:32:50;21.00;66.10
19039;DHT22;9652;49.014;12.052;2022-10-22T14:35:19;21.00;66.20
19039;DHT22;9652;49.014;12.052;2022-10-22T14:37:47;20.90;66.40
19039;DHT22;9652;49.014;12.052;2022-10-22T14:40:17;20.90;66.60
19039;DHT22;9652;49.014;12.052;2022-10-22T14:42:47;20.80;66.80
19039;DHT22;9652;49.014;12.052;2022-10-22T14:45:18;20.80;67.00
19039;DHT22;9652;49.014;12.052;2022-10-22T14:47:46;20.80;67.00
19039;DHT22;9652;49.014;12.052;2022-10-22T14:50:15;20.70;67.20
19039;DHT22;9652;49.014;12.052;2022-10-22T14:52:42;20.80;67.30
19039;DHT22;9652;49.014;12.052;2022-10-22T14:55:10;20.80;67.80
19039;DHT22;9652;49.014;12.052;2022-10-22T14:57:39;20.70;68.20
19039;DHT22;9652;49.014;12.052;2022-10-22T15:00:09;20.80;68.30
19039;DHT22;9652;49.014;12.052;2022-10-22T15:02:38;20.80;68.00
19039;DHT22;9652;49.014;12.052;2022-10-22T15:05:06;20.80;67.80
19039;DHT22;9652;49.014;12.052;2022-10-22T15:07:35;20.80;67.50
19039;DHT22;9652;49.014;12.052;2022-10-22T15:10:03;20.90;67.40
19039;DHT22;9652;49.014;12.052;2022-10-22T15:12:31;20.80;67.30
19039;DHT22;9652;49.014;12.052;2022-10-22T15:14:59;20.70;67.20
19039;DHT22;9652;49.014;12.052;2022-10-22T15:17:26;20.80;67.10
19039;DHT22;9652;49.014;12.052;2022-10-22T15:19:53;20.70;66.80
19039;DHT22;9652;49.014;12.052;2022-10-22T15:22:24;20.70;66.70
19039;DHT22;9652;49.014;12.052;2022-10-22T15:24:54;20.70;66.60
19039;DHT22;9652;49.014;12.052;2022-10-22T15:27:21;20.60;66.50
19039;DHT22;9652;49.014;12.052;2022-10-22T15:29:48;20.50;66.50
19039;DHT22;9652;49.014;12.052;2022-10-22T15:32:15;20.40;66.50
19039;DHT22;9652;49.014;12.052;2022-10-22T15:34:42;20.30;66.50
19039;DHT22;9652;49.014;12.052;2022-10-22T15:37:11;20.30;66.70
19039;DHT22;9652;49.014;12.052;2022-10-22T15:39:39;20.20;66.80
19039;DHT22;9652;49.014;12.052;2022-10-22T15:42:08;20.10;66.80
19039;DHT22;9652;49.014;12.052;2022-10-22T15:44:35;20.10;66.90
19039;DHT22;9652;49.014;12.052;2022-10-22T15:47:04;20.00;67.00
19039;DHT22;9652;49.014;12.052;2022-10-22T15:49:34;19.90;67.10
19039;DHT22;9652;49.014;12.052;2022-10-22T15:52:03;19.80;67.20
19039;DHT22;9652;49.014;12.052;2022-10-22T15:54:31;19.80;67.30
19039;DHT22;9652;49.014;12.052;2022-10-22T15:57:00;19.60;67.20
19039;DHT22;9652;49.014;12.052;2022-10-22T15:59:29;19.60;67.40
19039;DHT22;9652;49.014;12.052;2022-10-22T16:01:56;19.50;67.60
19039;DHT22;9652;49.014;12.052;2022-10-22T16:04:23;19.50;67.70
19039;DHT22;9652;49.014;12.052;2022-10-22T16:06:52;19.40;67.90